createdAt,value
2018-09-17T00:01:26.628Z,18.60
2018-09-17T00:04:00.801Z,18.60
2018-09-17T00:06:36.048Z,18.20
2018-09-17T00:09:13.263Z,17.70
2018-09-17T00:11:48.429Z,17.60
2018-09-17T00:14:23.581Z,17.50
2018-09-17T00:16:56.846Z,17.50
2018-09-17T00:19:30.494Z,17.60
2018-09-17T00:22:05.487Z,17.70
2018-09-17T00:24:42.443Z,17.40
2018-09-17T00:27:17.089Z,17.40
2018-09-17T00:29:51.514Z,17.70
2018-09-17T00:32:26.272Z,17.60
2018-09-17T00:35:01.102Z,17.30
2018-09-17T00:37:35.228Z,17.50
2018-09-17T00:40:10.044Z,17.50
2018-09-17T00:42:48.486Z,17.60
2018-09-17T00:45:22.781Z,17.60
2018-09-17T00:47:56.423Z,17.70
2018-09-17T00:50:31.149Z,17.70
2018-09-17T00:53:04.701Z,17.50
2018-09-17T00:55:43.292Z,17.40
2018-09-17T00:58:19.991Z,17.30
2018-09-17T01:00:53.318Z,17.30
2018-09-17T01:03:26.927Z,17.20
2018-09-17T01:06:00.240Z,17.10
2018-09-17T01:08:33.587Z,17.00
2018-09-17T01:11:06.849Z,17.10
2018-09-17T01:13:46.741Z,17.20
2018-09-17T01:16:19.894Z,17.20
2018-09-17T01:18:52.852Z,17.20
2018-09-17T01:21:28.027Z,17.00
2018-09-17T01:24:01.192Z,16.80
2018-09-17T01:26:34.761Z,16.70
2018-09-17T01:29:08.122Z,16.70
2018-09-17T01:31:41.847Z,16.60
2018-09-17T01:34:15.148Z,16.60
2018-09-17T01:36:48.529Z,16.40
2018-09-17T01:39:22.186Z,16.40
2018-09-17T01:41:57.025Z,16.30
2018-09-17T01:44:30.195Z,16.30
2018-09-17T01:47:02.999Z,16.30
2018-09-17T01:52:15.644Z,16.30
2018-09-17T01:54:48.330Z,16.20
2018-09-17T01:57:21.486Z,16.20
2018-09-17T01:59:55.537Z,16.20
2018-09-17T02:02:29.736Z,16.10
2018-09-17T02:05:02.738Z,16.00
2018-09-17T02:07:35.807Z,16.00
2018-09-17T02:10:09.114Z,15.90
2018-09-17T02:12:42.583Z,15.70
2018-09-17T02:15:15.231Z,15.60
2018-09-17T02:17:48.017Z,15.50
2018-09-17T02:20:21.248Z,15.40
2018-09-17T02:22:55.899Z,15.40
2018-09-17T02:25:29.349Z,15.40
2018-09-17T02:28:01.979Z,15.30
2018-09-17T02:30:35.763Z,15.30
2018-09-17T02:33:08.974Z,15.30
2018-09-17T02:35:43.215Z,15.30
2018-09-17T02:38:16.853Z,15.20
2018-09-17T02:40:49.928Z,15.20
2018-09-17T02:43:23.413Z,15.10
2018-09-17T02:45:57.302Z,15.10
2018-09-17T02:48:30.443Z,15.00
2018-09-17T02:51:03.893Z,15.00
2018-09-17T02:53:39.143Z,14.90
2018-09-17T02:56:12.550Z,14.90
2018-09-17T02:58:46.592Z,14.80
2018-09-17T03:01:20.049Z,14.80
2018-09-17T03:03:53.848Z,14.70
2018-09-17T03:06:26.936Z,14.70
2018-09-17T03:08:59.906Z,14.60
2018-09-17T03:11:32.951Z,14.60
2018-09-17T03:14:06.831Z,14.60
2018-09-17T03:16:48.386Z,14.50
2018-09-17T03:19:22.928Z,14.50
2018-09-17T03:21:56.263Z,14.60
2018-09-17T03:24:29.611Z,14.40
2018-09-17T03:27:03.983Z,14.50
2018-09-17T03:29:37.360Z,14.50
2018-09-17T03:32:11.256Z,14.50
2018-09-17T03:34:44.748Z,14.50
2018-09-17T03:37:20.594Z,14.40
2018-09-17T03:39:54.280Z,14.40
2018-09-17T03:42:27.766Z,14.40
2018-09-17T03:45:02.685Z,14.30
2018-09-17T03:47:37.105Z,14.30
2018-09-17T03:50:10.280Z,14.20
2018-09-17T03:52:43.688Z,14.20
2018-09-17T03:55:17.903Z,14.20
2018-09-17T03:57:52.640Z,14.10
2018-09-17T04:00:26.223Z,14.10
2018-09-17T04:03:00.023Z,14.00
2018-09-17T04:05:39.092Z,13.90
2018-09-17T04:08:25.423Z,13.90
2018-09-17T04:11:08.225Z,13.90
2018-09-17T04:13:43.015Z,13.80
2018-09-17T04:16:16.572Z,13.80
2018-09-17T04:18:53.088Z,13.70
2018-09-17T04:21:27.275Z,13.70
2018-09-17T04:24:00.667Z,13.70
2018-09-17T04:26:35.759Z,13.70
2018-09-17T04:29:11.348Z,13.60
2018-09-17T04:31:45.192Z,13.60
2018-09-17T04:34:20.909Z,13.60
2018-09-17T04:36:55.987Z,13.50
2018-09-17T04:39:31.228Z,13.50
2018-09-17T04:42:06.293Z,13.40
2018-09-17T04:44:41.906Z,13.50
2018-09-17T04:47:16.371Z,13.50
2018-09-17T04:49:51.797Z,13.40
2018-09-17T04:52:26.479Z,13.30
2018-09-17T04:55:01.715Z,13.30
2018-09-17T04:57:35.460Z,13.40
2018-09-17T05:00:11.289Z,13.30
2018-09-17T05:02:46.504Z,13.30
2018-09-17T05:05:23.138Z,13.20
2018-09-17T05:07:56.729Z,13.10
2018-09-17T05:10:30.994Z,13.10
2018-09-17T05:13:05.434Z,13.10
2018-09-17T05:15:40.657Z,13.00
2018-09-17T05:18:16.205Z,12.90
2018-09-17T05:20:50.788Z,12.90
2018-09-17T05:23:26.335Z,12.90
2018-09-17T05:26:00.807Z,12.90
2018-09-17T05:28:35.310Z,12.90
2018-09-17T05:31:10.041Z,12.90
2018-09-17T05:33:43.683Z,12.90
2018-09-17T05:36:21.481Z,12.90
2018-09-17T05:38:55.211Z,12.90
2018-09-17T05:41:28.528Z,12.80
2018-09-17T05:44:03.326Z,12.70
2018-09-17T05:46:37.753Z,12.70
2018-09-17T05:49:11.720Z,12.60
2018-09-17T05:51:46.079Z,12.50
2018-09-17T05:54:19.323Z,12.50
2018-09-17T05:56:52.614Z,12.40
2018-09-17T05:59:26.227Z,12.40
2018-09-17T06:01:59.605Z,12.40
2018-09-17T06:04:32.589Z,12.40
2018-09-17T06:07:06.293Z,12.30
2018-09-17T06:09:40.177Z,12.30
2018-09-17T06:12:14.479Z,12.20
2018-09-17T06:14:48.626Z,12.20
2018-09-17T06:17:22.625Z,12.20
2018-09-17T06:20:00.915Z,12.10
2018-09-17T06:22:35.356Z,12.10
2018-09-17T06:25:09.270Z,12.10
2018-09-17T06:27:43.671Z,12.00
2018-09-17T06:30:18.209Z,12.00
2018-09-17T06:32:52.366Z,12.00
2018-09-17T06:35:26.174Z,12.10
2018-09-17T06:37:59.953Z,12.10
2018-09-17T06:40:33.909Z,12.10
2018-09-17T06:43:07.551Z,12.20
2018-09-17T06:45:41.401Z,12.20
2018-09-17T06:48:15.343Z,12.30
2018-09-17T06:50:49.178Z,12.30
2018-09-17T06:53:22.728Z,12.30
2018-09-17T06:55:56.473Z,12.30
2018-09-17T06:58:31.162Z,12.30
2018-09-17T07:01:05.439Z,12.30
2018-09-17T07:03:39.138Z,12.20
2018-09-17T07:06:13.144Z,12.20
2018-09-17T07:08:47.103Z,12.20
2018-09-17T07:11:20.599Z,12.10
2018-09-17T07:13:54.405Z,12.10
2018-09-17T07:16:27.626Z,12.10
2018-09-17T07:19:01.301Z,12.00
2018-09-17T07:21:34.949Z,12.00
2018-09-17T07:24:10.232Z,12.00
2018-09-17T07:26:49.395Z,11.90
2018-09-17T07:29:22.653Z,11.90
2018-09-17T07:31:56.224Z,11.80
2018-09-17T07:34:29.786Z,11.70
2018-09-17T07:37:05.452Z,11.70
2018-09-17T07:39:38.755Z,11.70
2018-09-17T07:42:12.663Z,11.70
2018-09-17T07:44:46.318Z,11.60
2018-09-17T07:47:19.609Z,11.60
2018-09-17T07:49:53.120Z,11.50
2018-09-17T07:52:26.547Z,11.50
2018-09-17T07:55:00.127Z,11.50
2018-09-17T07:57:33.778Z,11.40
2018-09-17T08:00:07.144Z,11.30
2018-09-17T08:02:40.104Z,11.30
2018-09-17T08:05:14.330Z,11.20
2018-09-17T08:07:48.011Z,11.20
2018-09-17T08:10:27.173Z,11.20
2018-09-17T08:13:00.699Z,11.20
2018-09-17T08:15:34.884Z,11.20
2018-09-17T08:18:09.893Z,11.20
2018-09-17T08:20:44.117Z,11.10
2018-09-17T08:23:17.673Z,11.20
2018-09-17T08:25:51.004Z,11.20
2018-09-17T08:28:24.018Z,11.10
2018-09-17T08:30:57.030Z,11.10
2018-09-17T08:33:30.333Z,11.10
2018-09-17T08:36:03.295Z,11.00
2018-09-17T08:38:36.423Z,11.10
2018-09-17T08:41:09.932Z,11.00
2018-09-17T08:43:43.165Z,11.00
2018-09-17T08:46:16.096Z,11.00
2018-09-17T08:48:49.437Z,11.10
2018-09-17T08:51:22.558Z,11.20
2018-09-17T08:53:55.356Z,11.20
2018-09-17T08:56:32.741Z,11.30
2018-09-17T08:59:11.574Z,11.30
2018-09-17T09:01:49.302Z,11.30
2018-09-17T09:04:28.295Z,11.30
2018-09-17T09:07:05.617Z,11.40
2018-09-17T09:09:38.455Z,11.40
2018-09-17T09:12:15.812Z,11.40
2018-09-17T09:14:53.569Z,11.40
2018-09-17T09:17:26.695Z,11.50
2018-09-17T09:20:00.106Z,11.50
2018-09-17T09:22:34.259Z,11.50
2018-09-17T09:25:07.670Z,11.40
2018-09-17T09:27:41.134Z,11.50
2018-09-17T09:30:14.446Z,11.50
2018-09-17T09:32:47.451Z,11.60
2018-09-17T09:35:21.615Z,11.60
2018-09-17T09:37:55.282Z,11.70
2018-09-17T09:40:29.274Z,11.70
2018-09-17T09:43:03.669Z,11.70
2018-09-17T09:45:37.066Z,11.80
2018-09-17T09:48:10.683Z,11.80
2018-09-17T09:50:44.267Z,11.80
2018-09-17T09:53:17.781Z,11.90
2018-09-17T09:55:51.678Z,11.90
2018-09-17T09:58:24.759Z,12.00
2018-09-17T10:01:02.862Z,12.00
2018-09-17T10:03:40.335Z,12.10
2018-09-17T10:06:14.922Z,12.10
2018-09-17T10:08:52.678Z,12.10
2018-09-17T10:11:30.389Z,12.10
2018-09-17T10:14:07.860Z,12.10
2018-09-17T10:16:45.568Z,12.10
2018-09-17T10:19:25.107Z,12.00
2018-09-17T10:21:58.422Z,12.00
2018-09-17T10:24:32.372Z,11.90
2018-09-17T10:27:07.939Z,11.80
2018-09-17T10:29:41.235Z,11.70
2018-09-17T10:32:14.583Z,11.60
2018-09-17T10:34:47.634Z,11.50
2018-09-17T10:37:20.808Z,11.40
2018-09-17T10:39:54.271Z,11.30
2018-09-17T10:42:27.474Z,11.30
2018-09-17T10:45:00.779Z,11.30
2018-09-17T10:47:35.945Z,11.30
2018-09-17T10:50:09.132Z,11.30
2018-09-17T10:52:42.900Z,11.20
2018-09-17T10:55:16.959Z,11.20
2018-09-17T10:57:50.115Z,11.10
2018-09-17T11:00:24.340Z,11.00
2018-09-17T11:02:57.392Z,11.00
2018-09-17T11:05:36.566Z,10.90
2018-09-17T11:08:09.807Z,10.80
2018-09-17T11:10:43.360Z,10.80
2018-09-17T11:13:16.673Z,10.70
2018-09-17T11:15:50.986Z,10.70
2018-09-17T11:18:24.451Z,10.60
2018-09-17T11:20:57.660Z,10.60
2018-09-17T11:23:30.959Z,10.50
2018-09-17T11:26:04.589Z,10.50
2018-09-17T11:28:38.015Z,10.40
2018-09-17T11:31:11.416Z,10.30
2018-09-17T11:33:44.757Z,10.30
2018-09-17T11:36:18.297Z,10.30
2018-09-17T11:39:03.416Z,10.30
2018-09-17T11:41:39.627Z,10.30
2018-09-17T11:47:15.475Z,10.20
2018-09-17T11:50:04.629Z,10.20
2018-09-17T11:52:52.233Z,10.10
2018-09-17T11:55:42.920Z,10.10
2018-09-17T11:58:28.524Z,10.00
2018-09-17T12:01:11.847Z,10.00
2018-09-17T12:04:00.638Z,10.00
2018-09-17T12:06:38.080Z,10.00
2018-09-17T12:09:12.674Z,10.00
2018-09-17T12:11:46.190Z,9.90
2018-09-17T12:14:19.329Z,9.90
2018-09-17T12:16:52.705Z,9.90
2018-09-17T12:19:25.612Z,9.80
2018-09-17T12:21:59.008Z,9.90
2018-09-17T12:24:32.501Z,9.80
2018-09-17T12:27:06.425Z,9.80
2018-09-17T12:29:39.893Z,9.80
2018-09-17T12:32:13.066Z,9.80
2018-09-17T12:34:47.268Z,9.80
2018-09-17T12:37:20.692Z,9.80
2018-09-17T12:39:53.637Z,9.80
2018-09-17T12:42:26.971Z,9.80
2018-09-17T12:45:00.049Z,9.80
2018-09-17T12:47:33.159Z,9.90
2018-09-17T12:50:06.292Z,9.90
2018-09-17T12:52:41.252Z,9.90
2018-09-17T12:55:14.486Z,9.90
2018-09-17T12:57:48.055Z,10.00
2018-09-17T13:00:21.460Z,10.00
2018-09-17T13:02:54.651Z,10.10
2018-09-17T13:05:27.995Z,10.20
2018-09-17T13:08:01.287Z,10.20
2018-09-17T13:10:34.507Z,10.30
2018-09-17T13:13:07.504Z,10.40
2018-09-17T13:15:45.624Z,10.40
2018-09-17T13:18:19.150Z,10.60
2018-09-17T13:20:52.575Z,10.60
2018-09-17T13:23:25.922Z,10.70
2018-09-17T13:25:59.181Z,10.70
2018-09-17T13:28:32.325Z,10.80
2018-09-17T13:31:06.176Z,10.90
2018-09-17T13:33:39.501Z,10.90
2018-09-17T13:36:12.739Z,10.90
2018-09-17T13:38:46.618Z,11.00
2018-09-17T13:41:19.914Z,11.00
2018-09-17T13:43:53.436Z,11.00
2018-09-17T13:46:26.703Z,11.00
2018-09-17T13:49:00.816Z,11.00
2018-09-17T13:51:34.456Z,11.10
2018-09-17T13:54:07.727Z,11.10
2018-09-17T13:56:41.229Z,11.10
2018-09-17T13:59:14.597Z,11.20
2018-09-17T14:01:47.617Z,11.20
2018-09-17T14:06:58.778Z,11.20
2018-09-17T14:09:31.994Z,11.30
2018-09-17T14:12:05.477Z,11.30
2018-09-17T14:14:38.746Z,11.30
2018-09-17T14:17:12.231Z,11.30
2018-09-17T14:19:45.252Z,11.30
2018-09-17T14:22:18.242Z,11.40
2018-09-17T14:24:51.225Z,11.40
2018-09-17T14:27:24.288Z,11.40
2018-09-17T14:29:58.454Z,11.40
2018-09-17T14:32:36.344Z,11.40
2018-09-17T14:35:09.709Z,11.40
2018-09-17T14:37:43.027Z,11.40
2018-09-17T14:40:16.578Z,11.50
2018-09-17T14:42:49.871Z,11.60
2018-09-17T14:45:23.373Z,11.60
2018-09-17T14:47:56.574Z,11.60
2018-09-17T14:50:29.582Z,11.70
2018-09-17T14:53:03.358Z,11.70
2018-09-17T14:55:36.861Z,11.70
2018-09-17T14:58:10.155Z,11.70
2018-09-17T15:00:43.616Z,11.80
2018-09-17T15:03:16.940Z,11.80
2018-09-17T15:05:49.988Z,11.80
2018-09-17T15:08:23.261Z,11.90
2018-09-17T15:10:56.560Z,11.90
2018-09-17T15:13:29.971Z,11.90
2018-09-17T15:16:03.301Z,12.00
2018-09-17T15:18:37.298Z,12.00
2018-09-17T15:21:11.057Z,12.10
2018-09-17T15:23:44.106Z,12.10
2018-09-17T15:26:17.386Z,12.10
2018-09-17T15:28:50.961Z,12.20
2018-09-17T15:31:24.476Z,12.20
2018-09-17T15:33:58.136Z,12.30
2018-09-17T15:36:31.470Z,12.30
2018-09-17T15:39:05.422Z,12.50
2018-09-17T15:41:38.621Z,12.40
2018-09-17T15:44:12.580Z,12.60
2018-09-17T15:46:46.879Z,12.60
2018-09-17T15:49:20.215Z,12.60
2018-09-17T15:51:53.911Z,12.60
2018-09-17T15:54:27.599Z,12.70
2018-09-17T15:57:02.152Z,12.70
2018-09-17T15:59:35.577Z,12.90
2018-09-17T16:02:10.091Z,13.10
2018-09-17T16:04:43.914Z,13.30
2018-09-17T16:07:18.092Z,13.50
2018-09-17T16:09:52.286Z,13.70
2018-09-17T16:12:26.898Z,13.60
2018-09-17T16:15:00.936Z,13.90
2018-09-17T16:17:34.835Z,14.00
2018-09-17T16:20:08.275Z,14.10
2018-09-17T16:22:41.518Z,14.00
2018-09-17T16:25:14.614Z,13.80
2018-09-17T16:27:47.684Z,13.60
2018-09-17T16:30:21.152Z,13.40
2018-09-17T16:32:54.797Z,13.40
2018-09-17T16:35:28.215Z,13.30
2018-09-17T16:38:01.380Z,13.20
2018-09-17T16:40:34.633Z,13.30
2018-09-17T16:43:07.628Z,13.40
2018-09-17T16:45:41.195Z,13.40
2018-09-17T16:48:15.399Z,13.60
2018-09-17T16:50:48.493Z,13.80
2018-09-17T16:53:21.921Z,14.00
2018-09-17T16:55:55.618Z,14.10
2018-09-17T16:58:28.701Z,14.10
2018-09-17T17:01:04.457Z,14.20
2018-09-17T17:03:37.857Z,14.30
2018-09-17T17:06:11.257Z,14.40
2018-09-17T17:08:44.174Z,14.40
2018-09-17T17:11:17.444Z,14.50
2018-09-17T17:13:52.651Z,14.50
2018-09-17T17:16:26.083Z,14.70
2018-09-17T17:25:47.793Z,14.70
2018-09-17T17:28:21.539Z,14.70
2018-09-17T17:30:55.644Z,14.80
2018-09-17T17:33:29.131Z,14.90
2018-09-17T17:36:02.836Z,15.00
2018-09-17T17:38:35.917Z,15.00
2018-09-17T17:41:10.135Z,15.00
2018-09-17T17:43:43.468Z,15.10
2018-09-17T17:46:16.868Z,15.20
2018-09-17T17:48:50.250Z,15.30
2018-09-17T17:51:24.100Z,15.50
2018-09-17T17:53:57.267Z,15.70
2018-09-17T17:56:31.049Z,15.90
2018-09-17T17:59:04.382Z,16.10
2018-09-17T18:01:37.890Z,16.20
2018-09-17T18:04:11.107Z,16.10
2018-09-17T18:06:45.991Z,16.10
2018-09-17T18:09:19.424Z,16.00
2018-09-17T18:11:52.864Z,15.80
2018-09-17T18:14:27.358Z,15.90
2018-09-17T18:17:01.733Z,15.70
2018-09-17T18:19:36.324Z,15.60
2018-09-17T18:22:15.017Z,15.50
2018-09-17T18:24:48.547Z,15.40
2018-09-17T18:27:22.111Z,15.40
2018-09-17T18:29:55.282Z,15.20
2018-09-17T18:32:28.268Z,15.20
2018-09-17T18:35:01.351Z,15.20
2018-09-17T18:37:37.295Z,15.20
2018-09-17T18:40:11.610Z,15.10
2018-09-17T18:42:45.153Z,15.20
2018-09-17T18:45:18.906Z,15.20
2018-09-17T18:47:52.954Z,15.20
2018-09-17T18:50:26.251Z,15.30
2018-09-17T18:52:59.319Z,15.40
2018-09-17T18:55:33.086Z,15.40
2018-09-17T18:58:06.273Z,15.30
2018-09-17T19:00:39.868Z,15.40
2018-09-17T19:03:13.013Z,15.40
2018-09-17T19:05:46.684Z,15.50
2018-09-17T19:08:19.846Z,15.60
2018-09-17T19:10:53.179Z,15.70
2018-09-17T19:13:26.278Z,15.80
2018-09-17T19:16:00.369Z,15.80
2018-09-17T19:18:33.332Z,15.80
2018-09-17T19:21:06.744Z,15.60
2018-09-17T19:23:44.589Z,15.80
2018-09-17T19:26:18.999Z,16.00
2018-09-17T19:29:24.185Z,15.80
2018-09-17T19:31:57.372Z,15.90
2018-09-17T19:34:31.287Z,16.10
2018-09-17T19:37:10.231Z,16.20
2018-09-17T19:39:47.716Z,16.20
2018-09-17T19:42:20.894Z,16.30
2018-09-17T19:44:59.996Z,16.20
2018-09-17T19:47:33.381Z,16.30
2018-09-17T19:50:10.306Z,16.20
2018-09-17T19:52:43.959Z,16.10
2018-09-17T19:55:17.386Z,16.10
2018-09-17T19:57:54.684Z,16.20
2018-09-17T20:00:28.023Z,16.40
2018-09-17T20:03:01.642Z,16.60
2018-09-17T20:05:39.009Z,16.80
2018-09-17T20:08:12.138Z,16.90
2018-09-17T20:10:45.159Z,16.90
2018-09-17T20:13:18.837Z,16.90
2018-09-17T20:15:52.188Z,17.00
2018-09-17T20:18:25.079Z,17.00
2018-09-17T20:20:58.818Z,16.80
2018-09-17T20:23:32.077Z,16.70
2018-09-17T20:26:06.074Z,16.90
2018-09-17T20:28:39.207Z,16.80
2018-09-17T20:31:12.459Z,17.00
2018-09-17T20:33:45.730Z,17.10
2018-09-17T20:36:19.147Z,17.60
2018-09-17T20:38:52.572Z,17.80
2018-09-17T20:41:27.790Z,18.20
2018-09-17T20:44:01.187Z,18.40
2018-09-17T20:46:34.703Z,18.40
2018-09-17T20:49:08.176Z,18.60
2018-09-17T20:51:41.226Z,18.30
2018-09-17T20:54:14.548Z,18.30
2018-09-17T20:56:47.884Z,18.50
2018-09-17T20:59:21.369Z,18.60
2018-09-17T21:01:54.556Z,18.50
2018-09-17T21:04:30.182Z,18.50
2018-09-17T21:07:03.368Z,18.40
2018-09-17T21:09:36.857Z,18.00
2018-09-17T21:12:10.542Z,17.80
2018-09-17T21:14:44.326Z,17.90
2018-09-17T21:17:17.525Z,18.10
2018-09-17T21:19:50.538Z,18.10
2018-09-17T21:22:23.712Z,18.10
2018-09-17T21:24:57.904Z,18.00
2018-09-17T21:27:31.239Z,17.90
2018-09-17T21:30:04.373Z,17.60
2018-09-17T21:32:37.440Z,17.70
2018-09-17T21:35:11.574Z,17.40
2018-09-17T21:37:49.060Z,17.40
2018-09-17T21:40:22.367Z,17.50
2018-09-17T21:42:55.727Z,17.80
2018-09-17T21:45:29.037Z,18.30
2018-09-17T21:48:02.499Z,18.60
2018-09-17T21:50:36.408Z,18.80
2018-09-17T21:53:11.465Z,19.00
2018-09-17T21:55:45.189Z,19.10
2018-09-17T21:58:18.248Z,19.00
2018-09-17T22:00:56.071Z,19.10
2018-09-17T22:03:32.113Z,19.10
2018-09-17T22:06:05.671Z,18.70
2018-09-17T22:08:39.068Z,18.40
2018-09-17T22:11:12.031Z,18.40
2018-09-17T22:13:45.058Z,18.60
2018-09-17T22:16:18.553Z,18.90
2018-09-17T22:18:53.153Z,19.10
2018-09-17T22:21:27.175Z,19.30
2018-09-17T22:24:08.873Z,19.40
2018-09-17T22:26:49.573Z,19.50
2018-09-17T22:29:22.730Z,19.70
2018-09-17T22:31:56.778Z,19.80
2018-09-17T22:34:30.256Z,19.90
2018-09-17T22:37:03.209Z,20.00
2018-09-17T22:39:36.851Z,20.00
2018-09-17T22:42:12.120Z,20.10
2018-09-17T22:44:46.884Z,20.30
2018-09-17T22:47:21.465Z,20.30
2018-09-17T22:49:54.824Z,20.40
2018-09-17T22:52:28.218Z,20.20
2018-09-17T22:55:01.308Z,20.30
2018-09-17T22:57:34.718Z,20.40
2018-09-17T23:00:09.472Z,20.50
2018-09-17T23:02:43.427Z,20.60
2018-09-17T23:05:16.885Z,20.30
2018-09-17T23:07:50.288Z,20.40
2018-09-17T23:10:23.835Z,20.40
2018-09-17T23:12:57.166Z,20.10
2018-09-17T23:15:31.633Z,20.10
2018-09-17T23:18:21.811Z,20.20
2018-09-17T23:20:55.370Z,20.10
2018-09-17T23:23:28.938Z,20.00
2018-09-17T23:26:02.926Z,19.80
2018-09-17T23:28:36.896Z,19.80
2018-09-17T23:31:10.404Z,19.80
2018-09-17T23:33:43.843Z,19.70
2018-09-17T23:36:16.777Z,19.70
2018-09-17T23:38:50.073Z,19.70
2018-09-17T23:41:22.975Z,19.80
2018-09-17T23:43:56.496Z,19.90
2018-09-17T23:46:29.772Z,20.00
2018-09-17T23:49:03.052Z,19.90
2018-09-17T23:51:36.960Z,19.80
2018-09-17T23:54:13.164Z,19.80
2018-09-17T23:56:46.279Z,19.70
2018-09-17T23:59:20.247Z,19.70
